Portada
METAR-TAF:

METAR-TAF

Aeroports :

Xiamen, Xina

latitud: 24-29N, longitud: 118-05E, altitud: 139 m

Observació

L'informe es va fer fa 1 hora i 3 minuts, a les 23:00 UTC
Vent 2 kt amb direcció variable
Temperatura 20°C
Humitat 78%
Pressió 1017 hPa
Visibilitat 10 km o més
Cel ennuvolat a una alçada de 3300 ft

METAR: ZSAM 212300Z VRB01MPS 9999 BKN033 20/16 Q1017 NOSIG

Hora: 08:03 (00:03 UTC)

Pronòstic

L'informe es va fer fa 4 hores i 53 minuts, a les 19:10 UTC
Pronòstic vàlid del 22 a les 00 UTC al 22 a les 24 UTC
Vent 8 kt del Nord-Est amb ràfegues de 17 kt
Visibilitat: 8000 m
Cel ennuvolat a una alçada de 4000 ft
Evolucionant progressivament
l' 22 a les 06 UTC al 22 a les 07 UTC
Vent 12 kt del Est/Nord-Est amb ràfegues de 21 kt
Evolucionant progressivament
l' 22 a les 14 UTC al 22 a les 15 UTC
Vent 8 kt del Nord-Est amb ràfegues de 17 kt

TAF: ZSAM 211910Z 2200/2224 04004G09MPS 8000 BKN040 TX27/2206Z TN18/2221Z BECMG 2206/2207 07006G11MPS BECMG 2214/2215 04004G09MPS

Observacions i pronòstics meteorològics de més de 4000 aeroports (METAR i TAF).

Les estacions disponibles són els punts grocs i vermells al mapa.

Posi el ratolí al punt desitjat per veure el nom de l'estació.

Feu clic per veure les observacions i els pronòstics meteorològics.

Per canviar el mapa: feu clic els botons verds amb una creu de color negre per apropar; al botó verd amb un guió per allunyar la imatge; o en les fletxes verdes per a mapes adjacents.


METAR-TAF: